createdAt,value
2022-09-30T00:01:08.505Z,6.90
2022-09-30T00:03:36.830Z,6.63
2022-09-30T00:06:08.858Z,6.83
2022-09-30T00:08:37.684Z,6.30
2022-09-30T00:11:07.484Z,7.70
2022-09-30T00:13:37.232Z,6.40
2022-09-30T00:16:05.189Z,5.70
2022-09-30T00:18:32.510Z,7.37
2022-09-30T00:20:59.675Z,7.60
2022-09-30T00:23:26.322Z,6.73
2022-09-30T00:25:59.386Z,6.80
2022-09-30T00:28:27.120Z,6.60
2022-09-30T00:30:55.209Z,7.80
2022-09-30T00:33:21.758Z,6.93
2022-09-30T00:35:48.369Z,6.93
2022-09-30T00:38:15.106Z,6.80
2022-09-30T00:40:41.904Z,6.33
2022-09-30T00:43:15.078Z,7.13
2022-09-30T00:45:50.534Z,6.17
2022-09-30T00:48:26.177Z,7.23
2022-09-30T00:50:55.459Z,6.50
2022-09-30T00:53:29.801Z,6.77
2022-09-30T00:56:23.685Z,6.33
2022-09-30T00:58:59.706Z,6.60
2022-09-30T01:01:27.014Z,7.50
2022-09-30T01:03:58.992Z,6.53
2022-09-30T01:06:26.468Z,7.20
2022-09-30T01:08:54.001Z,8.07
2022-09-30T01:11:21.117Z,6.93
2022-09-30T01:13:54.372Z,7.70
2022-09-30T01:16:31.702Z,7.43
2022-09-30T01:19:01.762Z,8.00
2022-09-30T01:22:25.951Z,6.57
2022-09-30T01:25:34.346Z,7.20
2022-09-30T01:28:24.708Z,6.87
2022-09-30T01:31:14.597Z,6.67
2022-09-30T01:33:44.026Z,7.30
2022-09-30T01:36:17.628Z,7.27
2022-09-30T01:38:59.328Z,8.27
2022-09-30T01:41:36.754Z,7.77
2022-09-30T01:44:29.808Z,7.60
2022-09-30T01:47:04.804Z,7.27
2022-09-30T01:49:51.252Z,7.50
2022-09-30T01:52:23.274Z,7.03
2022-09-30T01:54:54.209Z,9.30
2022-09-30T01:57:27.446Z,7.70
2022-09-30T02:00:08.327Z,7.83
2022-09-30T02:03:09.662Z,8.33
2022-09-30T02:06:02.254Z,7.87
2022-09-30T02:08:56.973Z,8.03
2022-09-30T02:11:28.218Z,8.80
2022-09-30T02:14:10.418Z,9.13
2022-09-30T02:16:53.522Z,7.93
2022-09-30T02:19:33.511Z,7.77
2022-09-30T02:22:16.145Z,7.57
2022-09-30T02:24:46.316Z,9.00
2022-09-30T02:27:21.068Z,8.10
2022-09-30T02:29:56.822Z,7.97
2022-09-30T02:32:32.476Z,7.77
2022-09-30T02:35:11.970Z,6.73
2022-09-30T02:37:44.348Z,7.70
2022-09-30T02:40:13.402Z,8.10
2022-09-30T02:42:42.246Z,9.13
2022-09-30T02:45:12.215Z,9.33
2022-09-30T02:47:50.320Z,8.07
2022-09-30T02:50:22.827Z,9.70
2022-09-30T02:53:22.005Z,8.73
2022-09-30T02:55:51.341Z,8.17
2022-09-30T02:58:21.346Z,8.83
2022-09-30T03:00:50.273Z,8.87
2022-09-30T03:03:25.720Z,8.57
2022-09-30T03:05:53.272Z,8.40
2022-09-30T03:08:19.971Z,10.10
2022-09-30T03:10:50.754Z,8.30
2022-09-30T03:13:49.194Z,8.93
2022-09-30T03:16:37.151Z,9.20
2022-09-30T03:19:22.662Z,9.40
2022-09-30T03:22:27.219Z,10.00
2022-09-30T03:25:02.909Z,9.10
2022-09-30T03:27:42.345Z,9.17
2022-09-30T03:30:21.020Z,8.97
2022-09-30T03:33:15.812Z,8.60
2022-09-30T03:35:51.687Z,9.90
2022-09-30T03:38:51.589Z,8.77
2022-09-30T03:41:33.613Z,8.80
2022-09-30T03:44:19.404Z,10.33
2022-09-30T03:46:54.380Z,8.73
2022-09-30T03:49:25.626Z,9.63
2022-09-30T03:51:58.561Z,8.87
2022-09-30T03:54:26.317Z,9.17
2022-09-30T03:56:52.986Z,8.77
2022-09-30T03:59:28.388Z,9.07
2022-09-30T04:01:57.657Z,9.30
2022-09-30T04:04:24.471Z,8.40
2022-09-30T04:06:51.416Z,9.90
2022-09-30T04:09:18.533Z,9.00
2022-09-30T04:11:45.202Z,9.33
2022-09-30T04:14:11.872Z,9.30
2022-09-30T04:16:38.663Z,10.87
2022-09-30T04:19:05.436Z,10.13
2022-09-30T04:21:32.498Z,9.60
2022-09-30T04:23:59.239Z,9.47
2022-09-30T04:26:26.247Z,9.13
2022-09-30T04:28:52.921Z,10.10
2022-09-30T04:31:21.609Z,11.13
2022-09-30T04:33:48.369Z,10.43
2022-09-30T04:36:15.022Z,10.97
2022-09-30T04:38:41.871Z,9.73
2022-09-30T04:41:11.486Z,9.50
2022-09-30T04:43:38.255Z,11.30
2022-09-30T04:46:05.235Z,9.03
2022-09-30T04:48:32.422Z,10.10
2022-09-30T04:51:02.154Z,8.97
2022-09-30T04:53:30.181Z,9.20
2022-09-30T04:56:01.222Z,9.50
2022-09-30T04:58:33.422Z,10.27
2022-09-30T05:01:12.632Z,9.97
2022-09-30T05:03:40.130Z,10.80
2022-09-30T05:06:08.075Z,10.07
2022-09-30T05:08:35.246Z,10.00
2022-09-30T05:11:09.507Z,9.93
2022-09-30T05:13:40.207Z,10.90
2022-09-30T05:16:08.545Z,9.83
2022-09-30T05:18:35.993Z,10.90
2022-09-30T05:21:03.916Z,10.57
2022-09-30T05:23:31.990Z,10.57
2022-09-30T05:26:00.270Z,10.80
2022-09-30T05:28:27.766Z,10.20
2022-09-30T05:30:59.949Z,9.67
2022-09-30T05:33:29.704Z,11.13
2022-09-30T05:36:00.780Z,10.73
2022-09-30T05:38:28.065Z,11.00
2022-09-30T05:40:55.264Z,11.23
2022-09-30T05:43:22.141Z,10.77
2022-09-30T05:45:57.366Z,11.20
2022-09-30T05:48:25.470Z,11.50
2022-09-30T05:51:01.644Z,9.83
2022-09-30T05:53:29.221Z,11.10
2022-09-30T05:55:55.937Z,11.63
2022-09-30T05:58:22.653Z,11.00
2022-09-30T06:00:50.683Z,10.80
2022-09-30T06:03:18.146Z,10.53
2022-09-30T06:05:45.797Z,10.50
2022-09-30T06:08:14.147Z,11.70
2022-09-30T06:10:42.397Z,12.40
2022-09-30T06:13:09.741Z,12.10
2022-09-30T06:15:38.864Z,10.60
2022-09-30T06:18:06.024Z,11.40
2022-09-30T06:20:32.811Z,12.03
2022-09-30T06:23:01.082Z,12.40
2022-09-30T06:25:29.755Z,11.97
2022-09-30T06:27:57.156Z,11.43
2022-09-30T06:30:24.097Z,12.13
2022-09-30T06:32:51.544Z,13.63
2022-09-30T06:35:19.491Z,12.40
2022-09-30T06:37:46.739Z,14.53
2022-09-30T06:40:13.417Z,12.77
2022-09-30T06:42:40.166Z,14.70
2022-09-30T06:45:07.749Z,11.33
2022-09-30T06:47:34.567Z,12.93
2022-09-30T06:50:02.941Z,13.17
2022-09-30T06:52:29.745Z,13.07
2022-09-30T06:54:56.626Z,12.43
2022-09-30T06:57:24.982Z,12.40
2022-09-30T06:59:51.905Z,13.07
2022-09-30T07:02:18.893Z,12.83
2022-09-30T07:04:45.778Z,14.40
2022-09-30T07:07:12.737Z,14.33
2022-09-30T07:09:39.538Z,13.20
2022-09-30T07:12:08.997Z,14.40
2022-09-30T07:14:37.257Z,16.33
2022-09-30T07:17:05.638Z,14.30
2022-09-30T07:19:34.069Z,16.37
2022-09-30T07:22:22.161Z,15.83
2022-09-30T07:24:49.464Z,16.37
2022-09-30T07:27:16.271Z,15.57
2022-09-30T07:30:07.828Z,15.20
2022-09-30T07:32:30.890Z,15.90
2022-09-30T07:34:57.579Z,17.07
2022-09-30T07:37:26.257Z,16.67
2022-09-30T07:39:53.187Z,17.73
2022-09-30T07:42:22.735Z,17.60
2022-09-30T07:44:52.131Z,18.00
2022-09-30T07:47:19.528Z,16.87
2022-09-30T07:49:46.750Z,15.97
2022-09-30T07:52:14.045Z,16.53
2022-09-30T07:54:48.009Z,17.80
2022-09-30T07:57:16.497Z,19.30
2022-09-30T07:59:43.855Z,17.17
2022-09-30T08:02:17.507Z,19.53
2022-09-30T08:04:45.012Z,18.93
2022-09-30T08:07:14.157Z,18.97
2022-09-30T08:09:40.985Z,19.30
2022-09-30T08:12:08.139Z,21.40
2022-09-30T08:14:35.223Z,20.37
2022-09-30T08:17:02.049Z,19.90
2022-09-30T08:19:30.741Z,22.50
2022-09-30T08:21:58.199Z,24.37
2022-09-30T08:24:26.627Z,24.17
2022-09-30T08:26:54.255Z,25.90
2022-09-30T08:29:36.079Z,27.27
2022-09-30T08:32:07.824Z,28.87
2022-09-30T08:34:35.330Z,29.47
2022-09-30T08:37:07.821Z,32.27
2022-09-30T08:39:37.457Z,33.00
2022-09-30T08:42:36.597Z,31.63
2022-09-30T08:45:42.749Z,32.77
2022-09-30T08:48:31.885Z,31.93
2022-09-30T08:51:07.888Z,31.10
2022-09-30T08:53:47.539Z,30.77
2022-09-30T08:56:23.287Z,30.50
2022-09-30T08:58:53.466Z,32.97
2022-09-30T09:01:31.755Z,32.77
2022-09-30T09:04:00.348Z,32.63
2022-09-30T09:07:24.819Z,30.47
2022-09-30T09:10:29.369Z,28.70
2022-09-30T09:12:59.711Z,28.77
2022-09-30T09:15:54.889Z,26.47
2022-09-30T09:18:42.273Z,25.60
2022-09-30T09:21:15.611Z,28.10
2022-09-30T09:23:43.388Z,23.53
2022-09-30T09:26:13.913Z,25.20
2022-09-30T09:29:07.989Z,23.20
2022-09-30T09:31:34.814Z,22.60
2022-09-30T09:34:10.056Z,22.80
2022-09-30T09:37:16.017Z,21.07
2022-09-30T09:40:03.543Z,21.70
2022-09-30T09:43:12.174Z,20.93
2022-09-30T09:45:45.085Z,21.87
2022-09-30T09:48:15.710Z,20.87
2022-09-30T09:50:57.945Z,20.37
2022-09-30T09:53:36.583Z,20.93
2022-09-30T09:56:20.564Z,20.80
2022-09-30T09:59:26.227Z,19.20
2022-09-30T10:01:54.238Z,19.50
2022-09-30T10:04:26.188Z,20.13
2022-09-30T10:06:54.449Z,18.77
2022-09-30T10:09:28.327Z,20.30
2022-09-30T10:12:07.146Z,20.93
2022-09-30T10:14:34.749Z,19.07
2022-09-30T10:17:03.061Z,18.20
2022-09-30T10:19:32.088Z,19.97
2022-09-30T10:22:07.941Z,18.40
2022-09-30T10:24:36.832Z,18.93
2022-09-30T10:27:09.140Z,17.83
2022-09-30T10:29:52.465Z,17.90
2022-09-30T10:32:20.840Z,18.50
2022-09-30T10:35:02.614Z,18.20
2022-09-30T10:37:29.609Z,17.83
2022-09-30T10:40:04.447Z,19.33
2022-09-30T10:42:34.658Z,17.67
2022-09-30T10:45:16.799Z,16.40
2022-09-30T10:47:53.314Z,17.17
2022-09-30T10:50:27.710Z,16.90
2022-09-30T10:53:16.783Z,18.87
2022-09-30T10:55:45.424Z,20.03
2022-09-30T10:58:35.775Z,17.73
2022-09-30T11:01:22.882Z,18.57
2022-09-30T11:04:20.662Z,18.57
2022-09-30T11:06:52.010Z,19.10
2022-09-30T11:09:40.600Z,19.53
2022-09-30T11:12:41.867Z,18.13
2022-09-30T11:15:18.370Z,19.17
2022-09-30T11:18:01.132Z,17.20
2022-09-30T11:20:36.229Z,16.87
2022-09-30T11:23:45.969Z,16.97
2022-09-30T11:26:24.173Z,15.47
2022-09-30T11:28:50.968Z,15.47
2022-09-30T11:31:38.032Z,16.27
2022-09-30T11:34:15.385Z,16.10
2022-09-30T11:37:08.281Z,16.07
2022-09-30T11:39:47.019Z,14.63
2022-09-30T11:42:52.454Z,14.67
2022-09-30T11:45:40.065Z,13.97
2022-09-30T11:48:32.550Z,12.50
2022-09-30T11:51:02.399Z,14.27
2022-09-30T11:54:12.898Z,13.20
2022-09-30T11:56:53.152Z,12.50
2022-09-30T11:59:27.008Z,12.70
2022-09-30T12:01:58.134Z,12.80
2022-09-30T12:04:32.054Z,14.23
2022-09-30T12:07:13.702Z,12.37
2022-09-30T12:09:48.333Z,12.67
2022-09-30T12:12:17.946Z,12.63
2022-09-30T12:14:55.150Z,12.13
2022-09-30T12:17:41.367Z,10.63
2022-09-30T12:20:26.460Z,10.90
2022-09-30T12:23:01.488Z,10.47
2022-09-30T12:25:31.434Z,11.40
2022-09-30T12:28:01.327Z,10.03
2022-09-30T12:30:30.144Z,10.27
2022-09-30T12:33:13.864Z,10.60
2022-09-30T12:36:03.534Z,10.30
2022-09-30T12:38:39.484Z,9.20
2022-09-30T12:41:40.759Z,9.07
2022-09-30T12:44:45.288Z,9.40
2022-09-30T12:47:38.501Z,9.43
2022-09-30T12:50:08.695Z,8.30
2022-09-30T12:52:38.249Z,8.73
2022-09-30T12:55:12.692Z,9.20
2022-09-30T12:57:43.186Z,7.33
2022-09-30T13:00:22.369Z,6.90
2022-09-30T13:02:57.576Z,6.90
2022-09-30T13:05:27.024Z,6.83
2022-09-30T13:08:05.588Z,6.83
2022-09-30T13:10:33.157Z,6.40
2022-09-30T13:13:28.988Z,6.20
2022-09-30T13:16:03.106Z,5.50
2022-09-30T13:18:33.006Z,6.63
2022-09-30T13:21:05.521Z,5.93
2022-09-30T13:23:43.100Z,5.83
2022-09-30T13:26:35.080Z,5.97
2022-09-30T13:29:01.743Z,6.07
2022-09-30T13:31:30.441Z,6.90
2022-09-30T13:34:03.140Z,5.80
2022-09-30T13:36:57.724Z,5.00
2022-09-30T13:39:45.942Z,5.27
2022-09-30T13:42:31.350Z,5.37
2022-09-30T13:45:18.459Z,5.43
2022-09-30T13:47:48.237Z,5.10
2022-09-30T13:50:19.791Z,5.07
2022-09-30T13:52:55.415Z,5.83
2022-09-30T13:55:32.247Z,4.87
2022-09-30T13:57:59.605Z,4.83
2022-09-30T14:00:33.728Z,4.60
2022-09-30T14:03:17.090Z,4.93
2022-09-30T14:05:53.184Z,5.77
2022-09-30T14:08:34.704Z,5.27
2022-09-30T14:11:01.351Z,5.23
2022-09-30T14:14:05.908Z,6.57
2022-09-30T14:17:18.650Z,5.13
2022-09-30T14:19:53.178Z,4.23
2022-09-30T14:22:20.609Z,5.53
2022-09-30T14:24:50.482Z,5.03
2022-09-30T14:27:40.017Z,4.97
2022-09-30T14:30:13.600Z,5.47
2022-09-30T14:32:58.148Z,5.00
2022-09-30T14:35:31.330Z,6.43
2022-09-30T14:38:01.755Z,5.13
2022-09-30T14:40:31.459Z,4.87
2022-09-30T14:43:07.010Z,4.80
2022-09-30T14:45:37.946Z,4.57
2022-09-30T14:48:14.823Z,5.00
2022-09-30T14:50:50.530Z,4.67
2022-09-30T14:53:39.205Z,4.13
2022-09-30T14:56:36.413Z,4.10
2022-09-30T14:59:18.711Z,4.10
2022-09-30T15:01:48.205Z,4.07
2022-09-30T15:04:22.058Z,3.50
2022-09-30T15:06:51.931Z,3.77
2022-09-30T15:09:43.394Z,3.30
2022-09-30T15:12:16.406Z,3.80
2022-09-30T15:14:48.162Z,3.13
2022-09-30T15:17:28.355Z,3.17
2022-09-30T15:19:57.000Z,3.17
2022-09-30T15:22:26.689Z,3.13
2022-09-30T15:24:54.996Z,3.20
2022-09-30T15:27:28.231Z,2.80
2022-09-30T15:29:57.022Z,2.70
2022-09-30T15:32:26.088Z,2.90
2022-09-30T15:34:53.458Z,2.80
2022-09-30T15:37:26.125Z,2.60
2022-09-30T15:40:11.850Z,2.53
2022-09-30T15:42:56.579Z,2.00
2022-09-30T15:45:35.142Z,2.60
2022-09-30T15:48:25.869Z,2.50
2022-09-30T15:50:55.821Z,2.77
2022-09-30T15:53:25.815Z,2.00
2022-09-30T15:55:53.368Z,2.30
2022-09-30T15:58:26.598Z,2.20
2022-09-30T16:01:39.938Z,1.83
2022-09-30T16:04:15.775Z,2.00
2022-09-30T16:06:55.053Z,2.17
2022-09-30T16:09:30.550Z,2.27
2022-09-30T16:12:08.785Z,2.17
2022-09-30T16:14:51.049Z,2.00
2022-09-30T16:17:38.043Z,2.17
2022-09-30T16:20:26.755Z,2.10
2022-09-30T16:22:55.225Z,1.80
2022-09-30T16:25:31.662Z,2.40
2022-09-30T16:28:01.343Z,2.27
2022-09-30T16:30:30.410Z,2.00
2022-09-30T16:32:59.497Z,2.20
2022-09-30T16:35:27.973Z,2.33
2022-09-30T16:38:06.773Z,1.83
2022-09-30T16:40:37.989Z,2.00
2022-09-30T16:43:07.557Z,1.60
2022-09-30T16:45:35.342Z,2.23
2022-09-30T16:48:05.832Z,2.00
2022-09-30T16:50:39.361Z,2.10
2022-09-30T16:53:06.399Z,1.60
2022-09-30T16:55:34.645Z,1.67
2022-09-30T16:58:01.475Z,1.70
2022-09-30T17:00:29.627Z,1.73
2022-09-30T17:02:56.445Z,1.93
2022-09-30T17:05:25.628Z,1.80
2022-09-30T17:07:58.075Z,1.93
2022-09-30T17:10:30.538Z,1.80
2022-09-30T17:13:02.195Z,2.20
2022-09-30T17:15:30.838Z,2.23
2022-09-30T17:17:59.023Z,1.90
2022-09-30T17:20:27.506Z,2.07
2022-09-30T17:22:54.361Z,1.93
2022-09-30T17:25:21.290Z,1.90
2022-09-30T17:27:51.362Z,1.80
2022-09-30T17:30:20.903Z,2.20
2022-09-30T17:32:48.262Z,2.37
2022-09-30T17:35:15.540Z,2.23
2022-09-30T17:37:46.283Z,2.20
2022-09-30T17:40:32.948Z,2.10
2022-09-30T17:43:11.031Z,1.90
2022-09-30T17:45:46.168Z,2.60
2022-09-30T17:48:16.072Z,2.30
2022-09-30T17:50:45.443Z,2.23
2022-09-30T17:53:14.254Z,2.40
2022-09-30T17:55:41.901Z,2.70
2022-09-30T17:58:09.268Z,2.50
2022-09-30T18:00:37.643Z,2.93
2022-09-30T18:03:05.300Z,2.77
2022-09-30T18:05:36.114Z,2.50
2022-09-30T18:08:03.368Z,2.30
2022-09-30T18:10:30.065Z,2.40
2022-09-30T18:12:59.587Z,3.20
2022-09-30T18:15:27.140Z,3.20
2022-09-30T18:17:53.998Z,2.70
2022-09-30T18:20:24.858Z,3.23
2022-09-30T18:22:52.471Z,2.43
2022-09-30T18:25:23.208Z,3.00
2022-09-30T18:27:53.649Z,2.80
2022-09-30T18:30:21.636Z,3.10
2022-09-30T18:32:53.751Z,3.27
2022-09-30T18:35:24.187Z,3.07
2022-09-30T18:37:52.921Z,2.80
2022-09-30T18:40:22.980Z,2.73
2022-09-30T18:42:56.222Z,3.30
2022-09-30T18:45:23.764Z,2.80
2022-09-30T18:47:58.302Z,3.70
2022-09-30T18:50:28.293Z,3.90
2022-09-30T18:52:55.813Z,4.50
2022-09-30T18:55:22.745Z,4.70
2022-09-30T18:57:53.260Z,4.00
2022-09-30T19:00:20.588Z,3.50
2022-09-30T19:02:47.386Z,3.13
2022-09-30T19:05:16.736Z,3.43
2022-09-30T19:07:43.675Z,3.67
2022-09-30T19:10:13.070Z,3.67
2022-09-30T19:12:45.459Z,3.40
2022-09-30T19:15:16.070Z,3.40
2022-09-30T19:17:43.921Z,2.53
2022-09-30T19:20:11.462Z,3.60
2022-09-30T19:22:38.880Z,2.90
2022-09-30T19:25:12.858Z,3.50
2022-09-30T19:27:41.306Z,3.90
2022-09-30T19:30:13.492Z,3.70
2022-09-30T19:32:40.823Z,3.37
2022-09-30T19:35:10.344Z,2.97
2022-09-30T19:37:38.229Z,3.93
2022-09-30T19:40:19.134Z,3.43
2022-09-30T19:42:49.563Z,2.80
2022-09-30T19:45:17.437Z,3.03
2022-09-30T19:47:45.928Z,3.10
2022-09-30T19:50:12.654Z,3.07
2022-09-30T19:52:48.547Z,3.37
2022-09-30T19:55:20.592Z,2.63
2022-09-30T19:57:47.339Z,3.30
2022-09-30T20:00:14.261Z,3.20
2022-09-30T20:02:41.109Z,3.20
2022-09-30T20:05:08.318Z,2.83
2022-09-30T20:07:35.175Z,3.37
2022-09-30T20:10:02.481Z,2.70
2022-09-30T20:12:29.353Z,3.50
2022-09-30T20:15:14.692Z,3.23
2022-09-30T20:17:41.512Z,3.20
2022-09-30T20:20:27.724Z,3.50
2022-09-30T20:22:54.515Z,3.30
2022-09-30T20:25:21.398Z,3.70
2022-09-30T20:27:52.136Z,3.73
2022-09-30T20:30:19.465Z,3.40
2022-09-30T20:32:46.210Z,3.13
2022-09-30T20:35:13.164Z,3.30
2022-09-30T20:37:40.792Z,3.07
2022-09-30T20:40:09.442Z,2.90
2022-09-30T20:42:38.768Z,3.40
2022-09-30T20:45:10.122Z,3.00
2022-09-30T20:47:38.500Z,3.47
2022-09-30T20:50:06.503Z,3.43
2022-09-30T20:52:33.531Z,3.20
2022-09-30T20:55:00.602Z,3.07
2022-09-30T20:57:31.488Z,3.73
2022-09-30T21:00:02.177Z,3.10
2022-09-30T21:02:29.236Z,2.90
2022-09-30T21:05:01.005Z,3.50
2022-09-30T21:07:27.686Z,2.87
2022-09-30T21:09:54.439Z,3.30
2022-09-30T21:12:21.797Z,3.23
2022-09-30T21:14:48.549Z,3.23
2022-09-30T21:17:15.365Z,3.30
2022-09-30T21:19:42.064Z,3.30
2022-09-30T21:22:09.102Z,3.50
2022-09-30T21:24:35.749Z,3.57
2022-09-30T21:27:05.983Z,3.30
2022-09-30T21:29:33.047Z,3.50
2022-09-30T21:32:00.051Z,3.53
2022-09-30T21:34:26.925Z,3.67
2022-09-30T21:36:53.696Z,3.80
2022-09-30T21:39:20.502Z,3.77
2022-09-30T21:41:47.581Z,4.33
2022-09-30T21:44:15.235Z,4.23
2022-09-30T21:46:47.346Z,5.13
2022-09-30T21:49:18.149Z,4.50
2022-09-30T21:51:45.236Z,4.27
2022-09-30T21:54:13.891Z,4.20
2022-09-30T21:56:42.782Z,4.40
2022-09-30T21:59:10.686Z,4.80
2022-09-30T22:01:37.777Z,3.90
2022-09-30T22:04:05.327Z,4.00
2022-09-30T22:06:32.400Z,3.80
2022-09-30T22:09:02.898Z,3.80
2022-09-30T22:11:31.261Z,4.50
2022-09-30T22:13:59.697Z,4.10
2022-09-30T22:16:34.824Z,4.30
2022-09-30T22:19:04.714Z,4.20
2022-09-30T22:21:34.216Z,3.97
2022-09-30T22:24:03.028Z,4.10
2022-09-30T22:26:31.845Z,4.23
2022-09-30T22:29:11.009Z,4.30
2022-09-30T22:31:39.247Z,4.07
2022-09-30T22:34:26.205Z,4.30
2022-09-30T22:37:12.544Z,4.00
2022-09-30T22:39:39.261Z,4.03
2022-09-30T22:42:07.248Z,4.00
2022-09-30T22:44:36.431Z,3.90
2022-09-30T22:47:03.969Z,4.03
2022-09-30T22:49:34.445Z,3.90
2022-09-30T22:52:02.022Z,3.70
2022-09-30T22:54:29.333Z,4.47
2022-09-30T22:56:58.688Z,5.03
2022-09-30T22:59:26.790Z,3.83
2022-09-30T23:01:53.700Z,4.30
2022-09-30T23:04:21.326Z,3.60
2022-09-30T23:06:50.580Z,3.90
2022-09-30T23:09:18.200Z,3.90
2022-09-30T23:11:46.585Z,4.13
2022-09-30T23:14:14.252Z,3.53
2022-09-30T23:16:41.186Z,4.10
2022-09-30T23:19:08.076Z,3.60
2022-09-30T23:21:35.325Z,4.70
2022-09-30T23:24:02.434Z,3.87
2022-09-30T23:26:29.923Z,4.23
2022-09-30T23:28:58.338Z,3.83
2022-09-30T23:31:25.774Z,4.40
2022-09-30T23:33:58.731Z,4.20
2022-09-30T23:36:29.916Z,3.97
2022-09-30T23:39:12.369Z,4.00
2022-09-30T23:41:39.628Z,4.10
2022-09-30T23:44:07.389Z,4.60
2022-09-30T23:46:34.528Z,4.73
2022-09-30T23:49:01.341Z,4.70
2022-09-30T23:51:28.158Z,4.53
2022-09-30T23:53:55.332Z,4.50
2022-09-30T23:56:22.077Z,4.70
2022-09-30T23:58:50.328Z,4.90
